Time;durP1;ratioP1;P1;durP2;ratioP2;P2;SDS_P1;SDS_P2;PMS_P1;PMS_P2;Temp;Humidity;BMP_temperature;BMP_pressure;BME280_temperature;BME280_humidity;BME280_pressure;Samples;Min_cycle;Max_cycle;Signal;HPM_P1;HPM_P2
2021/01/17 00:02:14;;;;;;;66.63;38.00;;;;;;;;;;5113015;28;20028;-66
2021/01/17 00:04:40;;;;;;;62.67;36.87;;;;;;;;;;5112866;28;20032;-67
2021/01/17 00:07:06;;;;;;;67.67;36.33;;;;;;;;;;5113015;28;20035;-67
2021/01/17 00:09:32;;;;;;;63.97;33.70;;;;;;;;;;5113280;28;20369;-66
2021/01/17 00:11:58;;;;;;;58.20;33.83;;;;;;;;;;5113196;28;20030;-66
2021/01/17 00:14:24;;;;;;;57.63;34.20;;;;;;;;;;5113028;28;20084;-66
2021/01/17 00:16:50;;;;;;;60.13;35.37;;;;;;;;;;5113144;28;20024;-66
2021/01/17 00:19:16;;;;;;;63.93;34.90;;;;;;;;;;5113089;28;20035;-67
2021/01/17 00:21:45;;;;;;;55.93;32.67;;;;;;;;;;5113156;28;20035;-66
2021/01/17 00:24:11;;;;;;;58.83;32.63;;;;;;;;;;5112982;28;20027;-66
2021/01/17 00:26:38;;;;;;;49.93;28.97;;;;;;;;;;5112996;28;20023;-67
2021/01/17 00:29:04;;;;;;;44.07;26.87;;;;;;;;;;5116400;28;20055;-66
2021/01/17 00:31:34;;;;;;;54.90;31.87;;;;;;;;;;5117141;28;20467;-66
2021/01/17 00:34:01;;;;;;;44.43;27.03;;;;;;;;;;5116862;28;20031;-67
2021/01/17 00:36:27;;;;;;;45.57;26.93;;;;;;;;;;5116942;28;20434;-68
2021/01/17 00:38:53;;;;;;;45.30;25.03;;;;;;;;;;5116893;28;20384;-66
2021/01/17 00:41:19;;;;;;;43.60;26.17;;;;;;;;;;5116715;28;20085;-67
2021/01/17 00:43:45;;;;;;;43.03;26.00;;;;;;;;;;5116525;28;20026;-66
2021/01/17 00:46:11;;;;;;;41.17;24.97;;;;;;;;;;5116495;28;20380;-66
2021/01/17 00:48:39;;;;;;;44.73;25.47;;;;;;;;;;5116501;28;20024;-66
2021/01/17 00:51:05;;;;;;;40.97;26.07;;;;;;;;;;5116714;27;20047;-67
2021/01/17 00:53:31;;;;;;;44.73;24.73;;;;;;;;;;5116357;28;20024;-66
2021/01/17 00:55:57;;;;;;;46.07;26.43;;;;;;;;;;5116436;28;20035;-66
2021/01/17 00:58:23;;;;;;;44.23;25.57;;;;;;;;;;5116240;28;20357;-67
2021/01/17 01:00:49;;;;;;;42.50;24.60;;;;;;;;;;5116331;28;20116;-66
2021/01/17 01:03:15;;;;;;;45.67;26.17;;;;;;;;;;5116517;28;20026;-69
2021/01/17 01:05:41;;;;;;;43.30;25.63;;;;;;;;;;5116601;28;20097;-66
2021/01/17 01:08:08;;;;;;;43.53;24.87;;;;;;;;;;5116057;28;20076;-66
2021/01/17 01:10:34;;;;;;;42.93;24.00;;;;;;;;;;5116358;28;20047;-67
2021/01/17 01:13:00;;;;;;;43.80;25.00;;;;;;;;;;5116071;28;20099;-67
2021/01/17 01:15:26;;;;;;;45.17;26.37;;;;;;;;;;5116658;28;20408;-66
2021/01/17 01:17:52;;;;;;;41.83;24.50;;;;;;;;;;5116090;28;20027;-66
2021/01/17 01:20:18;;;;;;;40.57;23.47;;;;;;;;;;5114759;28;20070;-66
2021/01/17 01:22:44;;;;;;;40.60;24.23;;;;;;;;;;5115889;28;20032;-67
2021/01/17 01:25:10;;;;;;;40.77;23.27;;;;;;;;;;5115953;28;20030;-67
2021/01/17 01:27:36;;;;;;;41.90;24.00;;;;;;;;;;5115668;28;20040;-66
2021/01/17 01:30:03;;;;;;;37.93;22.67;;;;;;;;;;5115702;28;20035;-67
2021/01/17 01:32:29;;;;;;;44.07;24.83;;;;;;;;;;5115878;28;20026;-66
2021/01/17 01:34:55;;;;;;;42.17;24.87;;;;;;;;;;5115833;27;20023;-66
2021/01/17 01:37:22;;;;;;;43.40;25.43;;;;;;;;;;5115041;28;20147;-67
2021/01/17 01:39:49;;;;;;;43.23;24.30;;;;;;;;;;5114389;28;20168;-66
2021/01/17 01:42:15;;;;;;;41.63;25.10;;;;;;;;;;5114892;28;20019;-67
2021/01/17 01:44:41;;;;;;;45.03;26.07;;;;;;;;;;5115638;28;20023;-67
2021/01/17 01:47:14;;;;;;;44.10;25.43;;;;;;;;;;5115218;28;20035;-66
2021/01/17 01:49:42;;;;;;;44.53;25.77;;;;;;;;;;5115388;28;20023;-66
2021/01/17 01:52:09;;;;;;;40.47;25.30;;;;;;;;;;5114923;28;20055;-67
2021/01/17 01:54:36;;;;;;;45.00;26.47;;;;;;;;;;5114702;28;20031;-67
2021/01/17 01:57:02;;;;;;;45.70;25.00;;;;;;;;;;5114411;28;20042;-68
2021/01/17 01:59:28;;;;;;;38.70;24.30;;;;;;;;;;5111907;28;20035;-67
2021/01/17 02:01:55;;;;;;;38.77;23.87;;;;;;;;;;5112327;28;20077;-67
2021/01/17 02:04:21;;;;;;;40.67;23.17;;;;;;;;;;5112712;28;20396;-67
2021/01/17 02:07:14;;;;;;;35.40;21.63;;;;;;;;;;5113819;28;20030;-67
2021/01/17 02:09:40;;;;;;;34.70;20.43;;;;;;;;;;5111250;28;20479;-69
2021/01/17 02:12:14;;;;;;;34.17;20.47;;;;;;;;;;5114219;28;20058;-67
2021/01/17 02:14:42;;;;;;;34.30;20.37;;;;;;;;;;5114523;28;20364;-66
2021/01/17 02:17:12;;;;;;;35.80;18.70;;;;;;;;;;5114923;28;20031;-66
2021/01/17 02:19:45;;;;;;;31.67;19.13;;;;;;;;;;5114513;28;20027;-67
2021/01/17 02:22:12;;;;;;;33.47;19.80;;;;;;;;;;5114568;28;20035;-66
2021/01/17 02:24:44;;;;;;;34.13;21.57;;;;;;;;;;5114543;28;20102;-66
2021/01/17 02:27:10;;;;;;;40.53;22.23;;;;;;;;;;5114273;28;20039;-66
2021/01/17 02:29:36;;;;;;;38.77;21.73;;;;;;;;;;5114764;28;20088;-66
2021/01/17 02:32:04;;;;;;;33.90;20.50;;;;;;;;;;5114622;28;20131;-66
2021/01/17 02:34:30;;;;;;;36.37;21.23;;;;;;;;;;5114563;28;20028;-68
2021/01/17 02:37:02;;;;;;;34.53;20.37;;;;;;;;;;5114023;28;20054;-67
2021/01/17 02:39:40;;;;;;;32.80;19.73;;;;;;;;;;5114178;28;20076;-66
2021/01/17 02:42:07;;;;;;;33.70;19.50;;;;;;;;;;5114342;28;20748;-67
2021/01/17 02:44:33;;;;;;;35.97;21.00;;;;;;;;;;5114121;28;20027;-66
2021/01/17 02:47:01;;;;;;;31.60;20.13;;;;;;;;;;5114240;28;20460;-67
2021/01/17 02:49:27;;;;;;;33.47;20.57;;;;;;;;;;5114025;28;20016;-66
2021/01/17 02:51:53;;;;;;;36.70;21.27;;;;;;;;;;5113370;28;20217;-66
2021/01/17 02:54:28;;;;;;;34.70;21.73;;;;;;;;;;5114032;28;20099;-66
2021/01/17 02:57:06;;;;;;;36.83;21.63;;;;;;;;;;5114093;28;20433;-68
2021/01/17 02:59:53;;;;;;;42.27;21.70;;;;;;;;;;5113900;28;20042;-66
2021/01/17 03:02:19;;;;;;;37.00;22.00;;;;;;;;;;5113517;28;20030;-67
2021/01/17 03:04:47;;;;;;;38.40;22.43;;;;;;;;;;5113889;28;20076;-67
2021/01/17 03:07:14;;;;;;;38.87;22.43;;;;;;;;;;5113910;28;20303;-67
2021/01/17 03:09:44;;;;;;;37.40;21.93;;;;;;;;;;5114032;28;20023;-66
2021/01/17 03:12:10;;;;;;;36.53;21.73;;;;;;;;;;5113915;28;20030;-67
2021/01/17 03:14:37;;;;;;;35.30;21.57;;;;;;;;;;5113641;28;20596;-66
2021/01/17 03:17:04;;;;;;;35.00;20.50;;;;;;;;;;5113752;28;20019;-67
2021/01/17 03:19:30;;;;;;;33.07;20.40;;;;;;;;;;5114011;28;20071;-67
2021/01/17 03:21:56;;;;;;;32.33;19.47;;;;;;;;;;5113657;28;20020;-66
2021/01/17 03:24:22;;;;;;;34.47;19.10;;;;;;;;;;5113780;28;20125;-66
2021/01/17 03:26:48;;;;;;;29.03;17.43;;;;;;;;;;5113562;28;20107;-68
2021/01/17 03:29:14;;;;;;;28.37;17.10;;;;;;;;;;5113507;28;20566;-66
2021/01/17 03:31:40;;;;;;;28.93;17.53;;;;;;;;;;5113808;28;20432;-66
2021/01/17 03:34:06;;;;;;;31.50;16.17;;;;;;;;;;5113464;28;20106;-67
2021/01/17 03:36:32;;;;;;;28.33;17.57;;;;;;;;;;5113313;28;20087;-68
2021/01/17 03:38:58;;;;;;;27.97;17.20;;;;;;;;;;5113581;28;20034;-66
2021/01/17 03:41:24;;;;;;;26.30;15.27;;;;;;;;;;5113805;28;20020;-68
2021/01/17 03:43:51;;;;;;;28.47;14.50;;;;;;;;;;5113613;28;20020;-66
2021/01/17 03:46:17;;;;;;;20.83;12.77;;;;;;;;;;5113375;28;20036;-66
2021/01/17 03:48:43;;;;;;;20.53;12.03;;;;;;;;;;5113751;28;20046;-67
2021/01/17 03:51:09;;;;;;;21.03;11.87;;;;;;;;;;5113354;28;20027;-68
2021/01/17 03:53:35;;;;;;;19.67;11.07;;;;;;;;;;5113672;28;20095;-66
2021/01/17 03:56:01;;;;;;;22.73;11.90;;;;;;;;;;5113518;28;20027;-67
2021/01/17 03:58:27;;;;;;;19.97;11.73;;;;;;;;;;5113182;28;20020;-67
2021/01/17 04:00:53;;;;;;;17.53;10.77;;;;;;;;;;5113066;28;20036;-66
2021/01/17 04:03:19;;;;;;;20.07;11.87;;;;;;;;;;5117476;28;20030;-67
2021/01/17 04:05:45;;;;;;;18.53;12.00;;;;;;;;;;5117388;28;20163;-66
2021/01/17 04:08:12;;;;;;;19.30;11.23;;;;;;;;;;5117427;28;20476;-68
2021/01/17 04:10:38;;;;;;;18.43;11.83;;;;;;;;;;5117558;28;20019;-66
2021/01/17 04:13:04;;;;;;;22.27;12.13;;;;;;;;;;5117212;28;20032;-67
2021/01/17 04:15:30;;;;;;;21.07;12.33;;;;;;;;;;5117142;28;20037;-67
2021/01/17 04:17:56;;;;;;;21.83;13.80;;;;;;;;;;5117119;28;20476;-66
2021/01/17 04:20:22;;;;;;;23.53;12.37;;;;;;;;;;5116997;28;20032;-67
2021/01/17 04:22:48;;;;;;;23.50;12.60;;;;;;;;;;5117161;28;20060;-66
2021/01/17 04:25:14;;;;;;;21.00;12.97;;;;;;;;;;5117330;28;20542;-67
2021/01/17 04:27:40;;;;;;;22.63;12.23;;;;;;;;;;5117174;28;20464;-66
2021/01/17 04:30:07;;;;;;;21.40;12.27;;;;;;;;;;5116783;28;20495;-67
2021/01/17 04:32:34;;;;;;;18.37;12.47;;;;;;;;;;5117029;27;20039;-66
2021/01/17 04:35:01;;;;;;;19.73;11.73;;;;;;;;;;5117030;28;20038;-67
2021/01/17 04:37:27;;;;;;;16.93;10.73;;;;;;;;;;5117386;28;20500;-68
2021/01/17 04:39:53;;;;;;;17.87;10.57;;;;;;;;;;5116727;28;20495;-66
2021/01/17 04:42:20;;;;;;;17.93;9.97;;;;;;;;;;5116844;27;20383;-68
2021/01/17 04:44:50;;;;;;;18.73;10.57;;;;;;;;;;5116868;28;20419;-69
2021/01/17 04:47:18;;;;;;;18.70;10.73;;;;;;;;;;5116774;27;20031;-66
2021/01/17 04:49:46;;;;;;;18.40;9.90;;;;;;;;;;5116458;28;20031;-67
2021/01/17 04:52:13;;;;;;;15.90;9.67;;;;;;;;;;5116688;28;20027;-67
2021/01/17 04:54:39;;;;;;;17.03;9.63;;;;;;;;;;5116458;28;20028;-67
2021/01/17 04:57:12;;;;;;;15.17;8.97;;;;;;;;;;5116244;28;20032;-66
2021/01/17 05:00:01;;;;;;;15.55;9.77;;;;;;;;;;5116550;28;20106;-66
2021/01/17 05:02:44;;;;;;;20.00;11.50;;;;;;;;;;5108378;28;20024;-67
2021/01/17 05:05:14;;;;;;;18.88;10.95;;;;;;;;;;5116570;28;20027;-68
2021/01/17 05:07:44;;;;;;;16.20;10.37;;;;;;;;;;5115034;28;20064;-67
2021/01/17 05:10:11;;;;;;;16.70;10.67;;;;;;;;;;5114686;28;20042;-67
2021/01/17 05:12:51;;;;;;;17.50;10.63;;;;;;;;;;5113772;28;20055;-67
2021/01/17 05:15:20;;;;;;;20.60;13.33;;;;;;;;;;5114277;28;20024;-67
2021/01/17 05:17:46;;;;;;;30.03;17.20;;;;;;;;;;5114498;27;20031;-68
2021/01/17 05:20:12;;;;;;;28.77;17.50;;;;;;;;;;5114382;28;20377;-66
2021/01/17 05:22:38;;;;;;;26.83;16.90;;;;;;;;;;5114360;28;20107;-67
2021/01/17 05:25:06;;;;;;;31.57;17.90;;;;;;;;;;5114111;28;20039;-66
2021/01/17 05:27:32;;;;;;;28.63;17.43;;;;;;;;;;5113730;28;20040;-67
2021/01/17 05:29:58;;;;;;;31.23;19.00;;;;;;;;;;5114266;28;20031;-66
2021/01/17 05:32:25;;;;;;;22.47;14.87;;;;;;;;;;5113565;28;20411;-67
2021/01/17 05:34:52;;;;;;;26.47;15.63;;;;;;;;;;5114331;27;20088;-67
2021/01/17 05:37:18;;;;;;;23.53;11.57;;;;;;;;;;5113469;27;20098;-67
2021/01/17 05:39:55;;;;;;;18.47;10.67;;;;;;;;;;5113403;28;20047;-67
2021/01/17 05:42:22;;;;;;;17.03;10.17;;;;;;;;;;5113351;28;20028;-67
2021/01/17 05:44:48;;;;;;;14.87;9.83;;;;;;;;;;5113574;28;20112;-66
2021/01/17 05:47:14;;;;;;;14.70;9.70;;;;;;;;;;5113564;27;20054;-67
2021/01/17 05:49:40;;;;;;;13.80;9.30;;;;;;;;;;5113294;28;20380;-67
2021/01/17 05:52:10;;;;;;;14.33;9.33;;;;;;;;;;5113548;28;20098;-67
2021/01/17 05:54:37;;;;;;;14.50;9.60;;;;;;;;;;5113542;28;20543;-67
2021/01/17 05:57:09;;;;;;;15.80;9.80;;;;;;;;;;5113305;28;20043;-67
2021/01/17 05:59:37;;;;;;;16.88;9.88;;;;;;;;;;5113560;28;20039;-67
2021/01/17 06:02:03;;;;;;;15.37;8.47;;;;;;;;;;5114861;28;20077;-66
2021/01/17 06:04:29;;;;;;;16.03;9.70;;;;;;;;;;5113333;28;20034;-66
2021/01/17 06:06:56;;;;;;;14.93;9.20;;;;;;;;;;5113135;28;20016;-67
2021/01/17 06:09:23;;;;;;;14.03;9.50;;;;;;;;;;5113017;28;20024;-67
2021/01/17 06:11:58;;;;;;;16.03;10.23;;;;;;;;;;5113107;28;20055;-67
2021/01/17 06:14:25;;;;;;;15.83;9.90;;;;;;;;;;5113018;28;20527;-67
2021/01/17 06:16:57;;;;;;;16.03;9.00;;;;;;;;;;5112980;28;20112;-69
2021/01/17 06:19:29;;;;;;;16.20;9.33;;;;;;;;;;5113223;28;20543;-67
2021/01/17 06:21:59;;;;;;;16.25;9.55;;;;;;;;;;5113564;28;20395;-67
2021/01/17 06:24:45;;;;;;;16.57;9.27;;;;;;;;;;5113115;28;20016;-66
2021/01/17 06:27:11;;;;;;;16.87;10.30;;;;;;;;;;5112792;28;20476;-66
2021/01/17 06:29:38;;;;;;;14.97;9.97;;;;;;;;;;5113292;28;20031;-67
2021/01/17 06:32:14;;;;;;;15.50;10.40;;;;;;;;;;5114724;28;20471;-67
2021/01/17 06:34:45;;;;;;;16.03;11.23;;;;;;;;;;5114438;28;20027;-67
2021/01/17 06:37:11;;;;;;;20.03;12.13;;;;;;;;;;5114393;28;20028;-68
2021/01/17 06:39:41;;;;;;;22.33;12.77;;;;;;;;;;5113618;28;20067;-67
2021/01/17 06:42:10;;;;;;;21.70;12.73;;;;;;;;;;5112377;28;20058;-69
2021/01/17 06:44:36;;;;;;;17.80;12.20;;;;;;;;;;5112659;28;20024;-67
2021/01/17 06:47:03;;;;;;;23.27;13.40;;;;;;;;;;5112410;28;20028;-67
2021/01/17 06:49:30;;;;;;;21.53;14.33;;;;;;;;;;5112439;28;20031;-67
2021/01/17 06:51:57;;;;;;;23.37;14.47;;;;;;;;;;5112361;28;20140;-67
2021/01/17 06:54:24;;;;;;;23.33;14.33;;;;;;;;;;5112325;28;20131;-66
2021/01/17 06:56:51;;;;;;;27.13;15.33;;;;;;;;;;5112037;28;20024;-66
2021/01/17 06:59:36;;;;;;;29.60;16.80;;;;;;;;;;5113873;28;20027;-66
2021/01/17 07:02:15;;;;;;;27.03;17.07;;;;;;;;;;5114101;28;20023;-66
2021/01/17 07:04:44;;;;;;;26.50;14.63;;;;;;;;;;5113942;28;20464;-67
2021/01/17 07:07:19;;;;;;;28.70;15.37;;;;;;;;;;5113857;28;20024;-69
2021/01/17 07:09:49;;;;;;;20.23;13.37;;;;;;;;;;5113654;28;20024;-68
2021/01/17 07:12:25;;;;;;;26.50;15.07;;;;;;;;;;5113019;28;20023;-67
2021/01/17 07:15:07;;;;;;;22.90;13.77;;;;;;;;;;5114465;28;20153;-67
2021/01/17 07:17:35;;;;;;;24.03;14.27;;;;;;;;;;5113895;28;20023;-66
2021/01/17 07:20:11;;;;;;;22.10;13.10;;;;;;;;;;5113569;28;20285;-67
2021/01/17 07:22:37;;;;;;;18.10;12.73;;;;;;;;;;5113568;28;20499;-66
2021/01/17 07:25:05;;;;;;;21.07;12.73;;;;;;;;;;5113816;28;20024;-67
2021/01/17 07:27:31;;;;;;;22.67;13.60;;;;;;;;;;5113467;28;20128;-67
2021/01/17 07:29:59;;;;;;;20.83;12.83;;;;;;;;;;5112424;28;20077;-68
2021/01/17 07:32:28;;;;;;;22.10;14.33;;;;;;;;;;5110540;28;20019;-67
2021/01/17 07:34:54;;;;;;;23.63;13.40;;;;;;;;;;5110472;28;20815;-66
2021/01/17 07:37:21;;;;;;;19.30;13.17;;;;;;;;;;5111285;28;20028;-66
2021/01/17 07:39:50;;;;;;;22.47;12.67;;;;;;;;;;5113204;28;20071;-66
2021/01/17 07:42:18;;;;;;;21.93;13.57;;;;;;;;;;5113504;28;20020;-66
2021/01/17 07:44:47;;;;;;;19.30;13.13;;;;;;;;;;5113238;28;20031;-66
2021/01/17 07:47:15;;;;;;;21.10;13.53;;;;;;;;;;5112930;28;20031;-66
2021/01/17 07:49:43;;;;;;;21.73;14.37;;;;;;;;;;5113426;28;20194;-68
2021/01/17 07:52:09;;;;;;;24.50;14.57;;;;;;;;;;5112198;28;20584;-66
2021/01/17 07:54:37;;;;;;;26.47;15.07;;;;;;;;;;5112919;28;20024;-65
2021/01/17 07:57:08;;;;;;;23.80;14.80;;;;;;;;;;5113202;28;20520;-66
2021/01/17 07:59:34;;;;;;;25.47;15.80;;;;;;;;;;5109615;28;20035;-66
2021/01/17 08:02:00;;;;;;;25.63;16.17;;;;;;;;;;5108571;28;20110;-67
2021/01/17 08:04:27;;;;;;;29.03;16.97;;;;;;;;;;5110958;28;20016;-66
2021/01/17 08:06:57;;;;;;;27.43;16.73;;;;;;;;;;5112561;28;20023;-66
2021/01/17 08:09:59;;;;;;;26.97;17.10;;;;;;;;;;5112862;28;20079;-66
2021/01/17 08:12:29;;;;;;;25.63;15.33;;;;;;;;;;5050164;28;20045;-66
2021/01/17 08:15:10;;;;;;;22.97;13.67;;;;;;;;;;5102251;28;20035;-68
2021/01/17 08:17:39;;;;;;;22.37;14.97;;;;;;;;;;5109807;28;20421;-66
2021/01/17 08:20:06;;;;;;;26.50;14.67;;;;;;;;;;5109875;28;20035;-66
2021/01/17 08:22:32;;;;;;;22.77;14.40;;;;;;;;;;5111216;28;20015;-67
2021/01/17 08:25:03;;;;;;;22.17;15.20;;;;;;;;;;5112558;28;20035;-67
2021/01/17 08:30:07;;;;;;;23.93;14.60;;;;;;;;;;5113097;28;20369;-66
2021/01/17 08:35:11;;;;;;;24.03;14.93;;;;;;;;;;5108005;28;20032;-66
2021/01/17 08:37:50;;;;;;;24.57;14.73;;;;;;;;;;5109679;28;20605;-66
2021/01/17 08:40:17;;;;;;;23.87;14.77;;;;;;;;;;5111617;28;20031;-66
2021/01/17 08:42:53;;;;;;;21.97;14.80;;;;;;;;;;5112330;28;20054;-66
2021/01/17 08:45:19;;;;;;;20.33;13.83;;;;;;;;;;5112163;28;20027;-66
2021/01/17 08:47:46;;;;;;;20.73;14.10;;;;;;;;;;5111904;28;20388;-66
2021/01/17 08:50:27;;;;;;;21.33;14.03;;;;;;;;;;5115520;28;20028;-66
2021/01/17 08:53:06;;;;;;;21.77;13.50;;;;;;;;;;5115519;28;20028;-67
2021/01/17 08:55:36;;;;;;;24.50;13.53;;;;;;;;;;5115849;28;20457;-67
2021/01/17 08:58:02;;;;;;;23.20;13.40;;;;;;;;;;5115925;28;20599;-65
2021/01/17 09:00:48;;;;;;;21.03;12.00;;;;;;;;;;5116137;28;20043;-66
2021/01/17 09:03:28;;;;;;;23.73;13.27;;;;;;;;;;5105234;28;20119;-65
2021/01/17 09:05:58;;;;;;;30.30;19.00;;;;;;;;;;5116052;28;20026;-66
2021/01/17 09:08:25;;;;;;;31.30;19.40;;;;;;;;;;5116289;28;20025;-66
2021/01/17 09:10:51;;;;;;;37.67;22.07;;;;;;;;;;5115848;28;20076;-65
2021/01/17 09:13:30;;;;;;;42.53;24.23;;;;;;;;;;5115609;28;20024;-66
2021/01/17 09:16:00;;;;;;;40.50;23.27;;;;;;;;;;5115833;28;20034;-66
2021/01/17 09:18:27;;;;;;;34.80;22.60;;;;;;;;;;5115741;28;20027;-66
2021/01/17 09:20:54;;;;;;;40.23;23.57;;;;;;;;;;5115385;28;20044;-66
2021/01/17 09:23:20;;;;;;;37.23;24.00;;;;;;;;;;5115269;28;20487;-66
2021/01/17 09:25:55;;;;;;;37.70;23.70;;;;;;;;;;5115943;28;20106;-66
2021/01/17 09:28:21;;;;;;;35.10;22.87;;;;;;;;;;5115721;28;20526;-66
2021/01/17 09:30:48;;;;;;;38.07;24.90;;;;;;;;;;5116116;28;20059;-65
2021/01/17 09:33:15;;;;;;;1999.90;191.57;;;;;;;;;;5114470;28;20038;-66
2021/01/17 09:35:41;;;;;;;38.53;23.80;;;;;;;;;;5112801;28;20467;-66
2021/01/17 09:38:11;;;;;;;29.77;19.43;;;;;;;;;;5113203;28;20052;-66
2021/01/17 09:40:40;;;;;;;31.33;20.30;;;;;;;;;;5115646;28;20063;-65
2021/01/17 09:43:07;;;;;;;56.73;29.43;;;;;;;;;;5115478;28;20035;-65
2021/01/17 09:45:33;;;;;;;1743.43;191.67;;;;;;;;;;5115670;28;20081;-65
2021/01/17 09:48:00;;;;;;;729.00;81.43;;;;;;;;;;5115538;28;20082;-66
2021/01/17 09:50:30;;;;;;;412.30;49.53;;;;;;;;;;5115200;28;20107;-66
2021/01/17 09:52:56;;;;;;;31.90;21.47;;;;;;;;;;5115265;28;20030;-65
2021/01/17 09:55:22;;;;;;;30.83;19.37;;;;;;;;;;5115355;28;20031;-65
2021/01/17 09:57:48;;;;;;;33.77;20.53;;;;;;;;;;5113986;28;20958;-66
2021/01/17 10:00:16;;;;;;;80.43;30.83;;;;;;;;;;5111717;28;20464;-66
2021/01/17 10:02:42;;;;;;;1159.53;100.73;;;;;;;;;;5112237;28;20417;-66
2021/01/17 10:05:08;;;;;;;33.07;21.40;;;;;;;;;;5113724;28;20023;-65
2021/01/17 10:07:34;;;;;;;31.17;20.53;;;;;;;;;;5113875;28;20488;-66
2021/01/17 10:10:07;;;;;;;33.17;20.30;;;;;;;;;;5113686;28;20049;-66
2021/01/17 10:12:33;;;;;;;;;;;;;;;;;;5113232;28;20111;-66
2021/01/17 10:14:59;;;;;;;41.37;22.30;;;;;;;;;;5113783;28;19990;-65
2021/01/17 10:17:25;;;;;;;32.20;20.43;;;;;;;;;;5112481;28;20408;-66
2021/01/17 10:19:51;;;;;;;34.57;21.50;;;;;;;;;;5113711;28;20039;-65
2021/01/17 10:22:18;;;;;;;43.00;21.77;;;;;;;;;;5112896;28;20465;-66
2021/01/17 10:24:44;;;;;;;30.83;19.03;;;;;;;;;;5113059;28;20107;-66
2021/01/17 10:27:11;;;;;;;24.90;14.70;;;;;;;;;;5113615;28;20487;-66
2021/01/17 10:29:39;;;;;;;16.43;11.40;;;;;;;;;;5113329;28;20126;-66
2021/01/17 10:32:09;;;;;;;22.83;12.57;;;;;;;;;;5113601;28;20070;-65
2021/01/17 10:34:53;;;;;;;29.67;14.73;;;;;;;;;;5113671;28;20601;-65
2021/01/17 10:37:20;;;;;;;779.80;57.40;;;;;;;;;;5113272;28;20035;-65
2021/01/17 10:39:46;;;;;;;19.40;12.63;;;;;;;;;;5113647;28;20023;-66
2021/01/17 10:42:15;;;;;;;25.97;14.93;;;;;;;;;;5113897;28;20023;-66
2021/01/17 10:44:47;;;;;;;21.83;13.80;;;;;;;;;;5113929;28;20522;-66
2021/01/17 10:47:19;;;;;;;26.83;17.80;;;;;;;;;;5114390;28;20023;-66
2021/01/17 10:49:46;;;;;;;27.00;17.02;;;;;;;;;;5113913;28;20016;-67
2021/01/17 10:52:16;;;;;;;26.07;17.77;;;;;;;;;;5114146;28;20438;-66
2021/01/17 10:54:44;;;;;;;31.70;19.13;;;;;;;;;;5114022;28;20019;-67
2021/01/17 10:57:10;;;;;;;35.33;20.37;;;;;;;;;;5114119;28;20034;-67
2021/01/17 10:59:36;;;;;;;42.30;22.57;;;;;;;;;;5113678;28;20126;-66
2021/01/17 11:02:02;;;;;;;35.40;19.47;;;;;;;;;;5112100;28;20076;-67
2021/01/17 11:04:38;;;;;;;26.43;16.23;;;;;;;;;;5113211;28;20430;-67
2021/01/17 11:07:04;;;;;;;20.60;13.50;;;;;;;;;;5111375;28;20023;-66
2021/01/17 11:09:30;;;;;;;17.23;12.33;;;;;;;;;;5110633;28;20448;-67
2021/01/17 11:11:56;;;;;;;15.03;10.90;;;;;;;;;;5121126;27;20038;-67
2021/01/17 11:14:32;;;;;;;15.67;10.57;;;;;;;;;;5129769;27;20221;-66
2021/01/17 11:16:59;;;;;;;14.87;9.50;;;;;;;;;;5131083;27;20076;-67
2021/01/17 11:19:32;;;;;;;16.80;9.93;;;;;;;;;;5133706;27;20077;-67
2021/01/17 11:21:59;;;;;;;15.03;9.97;;;;;;;;;;5134227;27;20027;-67
2021/01/17 11:24:35;;;;;;;14.73;9.80;;;;;;;;;;5133846;27;20054;-67
2021/01/17 11:27:08;;;;;;;16.93;10.20;;;;;;;;;;5134006;27;20094;-67
2021/01/17 11:29:34;;;;;;;13.27;9.80;;;;;;;;;;5132830;27;20039;-67
2021/01/17 11:32:00;;;;;;;20.13;10.93;;;;;;;;;;5132875;27;20537;-68
2021/01/17 11:34:32;;;;;;;16.67;9.80;;;;;;;;;;5130083;27;20530;-68
2021/01/17 11:36:58;;;;;;;14.93;10.60;;;;;;;;;;5130835;27;20076;-67
2021/01/17 11:39:24;;;;;;;16.63;10.73;;;;;;;;;;5130881;27;20148;-67
2021/01/17 11:41:51;;;;;;;16.47;10.97;;;;;;;;;;5133755;27;20024;-67
2021/01/17 11:44:21;;;;;;;15.47;10.70;;;;;;;;;;5134060;27;20027;-67
2021/01/17 11:46:48;;;;;;;15.70;10.40;;;;;;;;;;5133940;27;20110;-67
2021/01/17 11:49:14;;;;;;;21.73;11.20;;;;;;;;;;5133902;27;20027;-67
2021/01/17 11:51:41;;;;;;;15.73;11.30;;;;;;;;;;5133922;27;20476;-67
2021/01/17 11:54:14;;;;;;;15.97;10.40;;;;;;;;;;5133590;27;20083;-68
2021/01/17 11:56:39;;;;;;;;;;;;;;;;;;5134269;27;20019;-67
2021/01/17 11:59:06;;;;;;;15.13;10.57;;;;;;;;;;5134109;27;20040;-67
2021/01/17 12:01:32;;;;;;;19.17;10.97;;;;;;;;;;5130747;27;20055;-68
2021/01/17 12:04:02;;;;;;;29.43;17.00;;;;;;;;;;5131030;27;20101;-67
2021/01/17 12:06:29;;;;;;;27.60;16.60;;;;;;;;;;5132704;27;20102;-67
2021/01/17 12:08:55;;;;;;;21.80;14.53;;;;;;;;;;5133980;27;20035;-67
2021/01/17 12:11:36;;;;;;;19.33;11.47;;;;;;;;;;5134075;27;20049;-67
2021/01/17 12:14:07;;;;;;;20.97;11.87;;;;;;;;;;5133953;27;20030;-68
2021/01/17 12:16:34;;;;;;;17.93;11.00;;;;;;;;;;5133899;27;20027;-67
2021/01/17 12:19:01;;;;;;;18.60;11.63;;;;;;;;;;5133817;27;20065;-67
2021/01/17 12:21:29;;;;;;;16.17;10.33;;;;;;;;;;5133868;27;20410;-67
2021/01/17 12:23:55;;;;;;;16.93;9.60;;;;;;;;;;5137191;27;20023;-67
2021/01/17 12:26:21;;;;;;;16.33;9.73;;;;;;;;;;5134786;27;20396;-67
2021/01/17 12:28:48;;;;;;;14.47;9.77;;;;;;;;;;5134628;27;20476;-68
2021/01/17 12:31:14;;;;;;;13.30;9.63;;;;;;;;;;5135540;27;20030;-67
2021/01/17 12:33:40;;;;;;;12.13;8.90;;;;;;;;;;5137376;27;20016;-67
2021/01/17 12:36:07;;;;;;;14.43;9.47;;;;;;;;;;5136264;27;20031;-67
2021/01/17 12:38:33;;;;;;;17.60;10.83;;;;;;;;;;5137301;27;20027;-67
2021/01/17 12:41:00;;;;;;;15.30;9.53;;;;;;;;;;5137172;27;20106;-67
2021/01/17 12:43:26;;;;;;;13.07;9.13;;;;;;;;;;5135028;27;20068;-68
2021/01/17 12:45:53;;;;;;;15.93;9.50;;;;;;;;;;5134619;27;20023;-66
2021/01/17 12:48:19;;;;;;;14.27;8.80;;;;;;;;;;5137106;27;20076;-67
2021/01/17 12:50:46;;;;;;;13.93;8.77;;;;;;;;;;5137162;27;20360;-67
2021/01/17 12:53:12;;;;;;;17.50;8.73;;;;;;;;;;5137058;27;20099;-67
2021/01/17 12:55:38;;;;;;;19.43;13.00;;;;;;;;;;5136602;27;20022;-67
2021/01/17 12:58:06;;;;;;;19.37;11.77;;;;;;;;;;5134788;27;20023;-67
2021/01/17 13:00:32;;;;;;;11.10;8.37;;;;;;;;;;5132858;27;20058;-68
2021/01/17 13:02:58;;;;;;;14.10;8.13;;;;;;;;;;5134530;27;20766;-68
2021/01/17 13:05:24;;;;;;;11.37;8.20;;;;;;;;;;5136761;27;20102;-68
2021/01/17 13:07:50;;;;;;;14.43;8.10;;;;;;;;;;5136879;27;20026;-68
2021/01/17 13:10:16;;;;;;;12.23;8.13;;;;;;;;;;5137091;27;20023;-70
2021/01/17 13:12:42;;;;;;;11.43;7.93;;;;;;;;;;5136955;27;20019;-67
2021/01/17 13:15:09;;;;;;;19.10;7.40;;;;;;;;;;5136845;27;20027;-66
2021/01/17 13:17:35;;;;;;;9.93;7.07;;;;;;;;;;5136923;27;20019;-67
2021/01/17 13:20:01;;;;;;;15.10;7.33;;;;;;;;;;5136654;27;20106;-67
2021/01/17 13:22:27;;;;;;;20.80;8.03;;;;;;;;;;5133877;27;20031;-68
2021/01/17 13:24:54;;;;;;;10.90;7.17;;;;;;;;;;5133820;27;20044;-67
2021/01/17 13:27:20;;;;;;;12.40;8.57;;;;;;;;;;5134115;27;20038;-67
2021/01/17 13:29:48;;;;;;;13.90;9.10;;;;;;;;;;5134789;27;20031;-68
2021/01/17 13:32:14;;;;;;;12.97;8.57;;;;;;;;;;5136078;27;20394;-68
2021/01/17 13:34:40;;;;;;;14.53;10.23;;;;;;;;;;5135696;27;20030;-67
2021/01/17 13:37:06;;;;;;;17.40;9.33;;;;;;;;;;5134492;27;20037;-68
2021/01/17 13:39:33;;;;;;;19.03;10.17;;;;;;;;;;5134892;27;20019;-68
2021/01/17 13:41:59;;;;;;;18.20;10.60;;;;;;;;;;5134981;27;20023;-67
2021/01/17 13:44:25;;;;;;;16.97;10.60;;;;;;;;;;5135643;27;20023;-67
2021/01/17 13:46:51;;;;;;;17.73;9.60;;;;;;;;;;5135931;27;20023;-67
2021/01/17 13:49:17;;;;;;;17.73;10.83;;;;;;;;;;5136061;27;20027;-68
2021/01/17 13:51:44;;;;;;;17.90;10.40;;;;;;;;;;5135582;27;20027;-67
2021/01/17 13:54:10;;;;;;;14.33;10.03;;;;;;;;;;5136237;27;20027;-67
2021/01/17 13:56:37;;;;;;;14.17;9.37;;;;;;;;;;5135946;27;20071;-66
2021/01/17 13:59:03;;;;;;;16.83;9.10;;;;;;;;;;5135612;27;20119;-67
2021/01/17 14:01:29;;;;;;;14.57;8.50;;;;;;;;;;5135936;27;20485;-67
2021/01/17 14:03:55;;;;;;;14.43;8.87;;;;;;;;;;5135783;27;20023;-67
2021/01/17 14:06:21;;;;;;;14.17;8.83;;;;;;;;;;5135624;27;20024;-68
2021/01/17 14:08:47;;;;;;;15.27;10.10;;;;;;;;;;5135487;27;20525;-67
2021/01/17 14:11:13;;;;;;;19.47;9.50;;;;;;;;;;5135394;27;20399;-68
2021/01/17 14:13:39;;;;;;;13.57;8.30;;;;;;;;;;5134236;27;20527;-68
2021/01/17 14:16:06;;;;;;;15.47;8.70;;;;;;;;;;5135596;27;20468;-67
2021/01/17 14:18:32;;;;;;;14.53;8.07;;;;;;;;;;5135278;27;20043;-67
2021/01/17 14:20:58;;;;;;;13.60;9.10;;;;;;;;;;5134908;27;20034;-66
2021/01/17 14:23:24;;;;;;;13.40;8.60;;;;;;;;;;5135516;27;20019;-67
2021/01/17 14:25:50;;;;;;;14.00;8.50;;;;;;;;;;5132088;27;20476;-68
2021/01/17 14:28:16;;;;;;;15.90;8.97;;;;;;;;;;5133597;27;20483;-68
2021/01/17 14:30:42;;;;;;;15.80;8.27;;;;;;;;;;5131963;27;20035;-68
2021/01/17 14:33:08;;;;;;;12.43;8.30;;;;;;;;;;5134376;27;20026;-68